Time;durP1;ratioP1;P1;durP2;ratioP2;P2;SDS_P1;SDS_P2;PMS_P1;PMS_P2;Temp;Humidity;BMP_temperature;BMP_pressure;BME280_temperature;BME280_humidity;BME280_pressure;Samples;Min_cycle;Max_cycle;Signal;HPM_P1;HPM_P2
2023/02/18 00:00:23;;;;;;;13.57;1.83;;;;;;;9.98;56.77;101147.78;5102066;27;96915;-72
2023/02/18 00:02:49;;;;;;;15.35;1.77;;;;;;;10.05;56.37;101150.25;5104465;27;99044;-71
2023/02/18 00:05:16;;;;;;;22.45;2.97;;;;;;;10.05;56.69;101150.25;5102382;27;97889;-71
2023/02/18 00:07:43;;;;;;;14.70;1.92;;;;;;;10.34;55.69;101145.06;5100734;27;99059;-70
2023/02/18 00:10:12;;;;;;;19.60;2.28;;;;;;;10.54;54.94;101147.16;5104253;27;97343;-72
2023/02/18 00:12:39;;;;;;;11.77;2.38;;;;;;;10.76;54.26;101159.66;5099522;27;96927;-72
2023/02/18 00:15:06;;;;;;;27.60;2.38;;;;;;;10.55;54.93;101143.59;5098749;27;102135;-72
2023/02/18 00:17:34;;;;;;;17.13;2.53;;;;;;;10.62;55.09;101143.38;5101960;27;99094;-69
2023/02/18 00:20:00;;;;;;;14.70;2.58;;;;;;;10.47;55.37;101149.09;5107424;27;96776;-69
2023/02/18 00:22:27;;;;;;;16.10;2.20;;;;;;;10.04;56.99;101153.81;5101155;27;97625;-72
2023/02/18 00:24:53;;;;;;;11.05;1.60;;;;;;;10.05;56.73;101164.31;5105065;27;97132;-72
2023/02/18 00:27:19;;;;;;;13.35;2.17;;;;;;;9.91;57.20;101161.19;5097879;27;99523;-72
2023/02/18 00:29:46;;;;;;;14.02;2.05;;;;;;;9.99;56.96;101168.00;5102970;27;96704;-72
2023/02/18 00:32:12;;;;;;;20.15;2.45;;;;;;;9.71;57.77;101167.00;5102420;27;97008;-73
2023/02/18 00:34:40;;;;;;;19.45;2.13;;;;;;;9.87;57.83;101157.75;5099310;27;98895;-72
2023/02/18 00:37:06;;;;;;;12.93;2.38;;;;;;;9.91;57.84;101172.59;5102497;27;99516;-72
2023/02/18 00:39:32;;;;;;;15.68;2.25;;;;;;;10.05;57.30;101171.38;5100427;27;98534;-73
2023/02/18 00:41:59;;;;;;;20.15;2.05;;;;;;;9.86;57.72;101161.28;5102085;27;97084;-72
2023/02/18 00:44:25;;;;;;;23.77;3.80;;;;;;;10.08;57.49;101173.94;5100926;27;98975;-73
2023/02/18 00:46:52;;;;;;;18.67;2.28;;;;;;;10.09;57.09;101171.25;5100999;27;99232;-73
2023/02/18 00:49:18;;;;;;;20.38;2.08;;;;;;;9.74;57.62;101177.44;5107842;27;96801;-72
2023/02/18 00:51:46;;;;;;;22.25;2.17;;;;;;;9.60;58.47;101179.56;5104075;27;96975;-73
2023/02/18 00:54:12;;;;;;;13.68;2.03;;;;;;;9.78;58.22;101184.38;5102474;27;99045;-73
2023/02/18 00:56:39;;;;;;;22.50;2.40;;;;;;;9.86;58.14;101192.09;5096706;27;98751;-72
2023/02/18 00:59:05;;;;;;;20.17;1.95;;;;;;;9.70;58.23;101196.03;5102610;27;97592;-71
2023/02/18 01:01:32;;;;;;;24.92;3.38;;;;;;;9.34;59.38;101189.88;5099273;27;97310;-72
2023/02/18 01:03:58;;;;;;;18.85;2.35;;;;;;;9.45;58.90;101196.63;5099824;27;98723;-72
2023/02/18 01:06:25;;;;;;;12.32;2.40;;;;;;;9.53;58.83;101194.66;5109903;27;99154;-72
2023/02/18 01:08:52;;;;;;;20.75;3.10;;;;;;;9.35;59.30;101202.16;5097533;27;97121;-74
2023/02/18 01:11:19;;;;;;;15.77;2.55;;;;;;;9.79;58.28;101186.09;5099329;27;97196;-72
2023/02/18 01:13:45;;;;;;;18.15;2.95;;;;;;;9.69;58.33;101187.25;5109145;27;99124;-74
2023/02/18 01:16:12;;;;;;;20.33;2.50;;;;;;;9.71;57.83;101172.25;5098536;27;99272;-73
2023/02/18 01:18:39;;;;;;;19.67;2.88;;;;;;;9.70;57.45;101170.53;5100985;27;96868;-73
2023/02/18 01:21:07;;;;;;;18.77;1.83;;;;;;;9.73;58.00;101174.84;5099913;27;97560;-72
2023/02/18 01:23:33;;;;;;;18.67;2.80;;;;;;;9.74;58.07;101179.22;5098767;27;99414;-72
2023/02/18 01:26:01;;;;;;;14.35;2.00;;;;;;;9.85;57.53;101185.94;5095295;27;99224;-69
2023/02/18 01:28:27;;;;;;;15.05;2.25;;;;;;;9.53;58.02;101184.13;5104778;27;97573;-70
2023/02/18 01:30:54;;;;;;;17.08;3.10;;;;;;;9.75;57.61;101189.75;5092724;27;96848;-71
2023/02/18 01:33:21;;;;;;;18.55;1.83;;;;;;;9.66;58.10;101200.50;5096012;27;98932;-70
2023/02/18 01:35:47;;;;;;;16.75;2.08;;;;;;;9.73;57.91;101190.66;5097373;27;99001;-69
2023/02/18 01:38:13;;;;;;;15.82;1.50;;;;;;;9.77;57.37;101187.94;5105458;27;97198;-70
2023/02/18 01:40:46;;;;;;;18.15;2.00;;;;;;;9.53;58.15;101193.81;5102361;27;96995;-71
2023/02/18 01:43:14;;;;;;;19.35;2.90;;;;;;;9.62;58.06;101187.44;5092034;27;98855;-71
2023/02/18 01:46:07;;;;;;;18.77;3.15;;;;;;;9.56;58.04;101156.81;5095402;27;101020;-70
2023/02/18 01:48:38;;;;;;;12.57;2.50;;;;;;;9.36;58.83;101177.53;5099969;27;98735;-70
2023/02/18 01:51:09;;;;;;;21.60;2.70;;;;;;;9.70;57.85;101185.50;5105090;27;97231;-71
2023/02/18 01:53:41;;;;;;;15.38;2.25;;;;;;;9.69;57.78;101194.31;5097538;27;99000;-69
2023/02/18 01:56:13;;;;;;;17.13;2.03;;;;;;;9.74;57.41;101185.38;5101614;27;98817;-69
2023/02/18 01:58:42;;;;;;;11.52;1.58;;;;;;;9.62;57.77;101185.66;5100878;27;97125;-70
2023/02/18 02:01:10;;;;;;;15.80;2.33;;;;;;;9.63;58.15;101178.63;5102943;27;97242;-69
2023/02/18 02:03:36;;;;;;;18.02;2.75;;;;;;;9.80;57.17;101166.72;5107944;27;100516;-69
2023/02/18 02:06:10;;;;;;;13.55;2.00;;;;;;;9.93;57.30;101170.78;5098776;27;98994;-70
2023/02/18 02:08:37;;;;;;;20.55;2.55;;;;;;;9.88;56.99;101179.75;5098782;27;97358;-69
2023/02/18 02:11:15;;;;;;;11.75;1.90;;;;;;;9.63;58.15;101178.63;5105758;27;97309;-70
2023/02/18 02:14:04;;;;;;;18.88;2.17;;;;;;;9.88;57.52;101175.31;5105047;27;98633;-69
2023/02/18 02:16:40;;;;;;;10.55;1.75;;;;;;;9.58;57.50;101189.31;5100060;27;99326;-70
2023/02/18 02:19:33;;;;;;;15.18;2.33;;;;;;;9.62;58.15;101188.31;5099369;27;96830;-69
2023/02/18 02:22:20;;;;;;;16.25;2.25;;;;;;;9.87;57.57;101194.72;5099600;27;98889;-71
2023/02/18 02:25:09;;;;;;;15.55;1.67;;;;;;;9.36;58.74;101194.22;5099736;27;97799;-71
2023/02/18 02:27:59;;;;;;;12.98;1.90;;;;;;;9.49;58.37;101184.25;5100024;27;98907;-70
2023/02/18 02:30:47;;;;;;;14.93;1.85;;;;;;;9.36;58.68;101199.50;5099584;27;97304;-69
2023/02/18 02:33:50;;;;;;;21.40;2.47;;;;;;;9.66;58.29;101200.50;5082628;27;97985;-69
2023/02/18 02:36:23;;;;;;;20.75;2.42;;;;;;;9.54;58.30;101198.19;5100045;27;98195;-70
2023/02/18 02:38:56;;;;;;;14.20;2.08;;;;;;;9.43;58.11;101187.03;5100243;27;99264;-70
2023/02/18 02:41:33;;;;;;;19.13;2.20;;;;;;;9.40;58.65;101192.34;5094398;27;96815;-70
2023/02/18 02:44:11;;;;;;;17.48;2.50;;;;;;;9.58;57.68;101192.78;5102811;27;96778;-71
2023/02/18 02:46:43;;;;;;;14.35;1.98;;;;;;;9.49;58.09;101189.50;5094701;27;98815;-70
2023/02/18 02:49:21;;;;;;;15.70;1.52;;;;;;;9.52;57.81;101203.47;5101942;27;98796;-70
2023/02/18 02:51:55;;;;;;;14.32;1.50;;;;;;;9.49;58.02;101178.97;5098323;27;97530;-70
2023/02/18 02:54:24;;;;;;;15.32;2.13;;;;;;;9.26;58.32;101190.03;5102697;27;97134;-71
2023/02/18 02:57:04;;;;;;;16.27;2.10;;;;;;;9.47;57.99;101194.81;5097880;27;98804;-72
2023/02/18 02:59:32;;;;;;;16.17;2.42;;;;;;;9.50;57.92;101196.53;5102965;27;98208;-71
2023/02/18 03:02:19;;;;;;;15.50;1.80;;;;;;;9.43;57.95;101189.66;5106673;27;96988;-71
2023/02/18 03:05:19;;;;;;;11.65;1.55;;;;;;;9.33;58.24;101198.69;5100049;27;97023;-72
2023/02/18 03:08:04;;;;;;;15.40;1.77;;;;;;;9.30;58.42;101196.13;5099196;27;97634;-69
2023/02/18 03:10:42;;;;;;;20.35;2.03;;;;;;;9.18;58.37;101200.78;5096033;27;98778;-72
2023/02/18 03:13:18;;;;;;;13.20;1.90;;;;;;;9.21;58.55;101199.84;5096648;27;96742;-71
2023/02/18 03:15:54;;;;;;;16.73;2.13;;;;;;;9.40;57.72;101197.63;5102767;27;96923;-71
2023/02/18 03:18:31;;;;;;;19.45;1.65;;;;;;;9.52;57.04;101197.34;5098936;27;99299;-70
2023/02/18 03:21:02;;;;;;;11.80;1.98;;;;;;;9.75;56.22;101192.38;5102225;27;99166;-69
2023/02/18 03:23:34;;;;;;;14.45;1.95;;;;;;;9.73;56.42;101191.53;5102342;27;97612;-70
2023/02/18 03:26:04;;;;;;;12.15;1.50;;;;;;;9.81;55.98;101204.56;5105015;27;100462;-71
2023/02/18 03:28:31;;;;;;;9.90;1.55;;;;;;;9.55;56.66;101192.88;5097107;27;99336;-70
2023/02/18 03:31:02;;;;;;;22.15;2.85;;;;;;;9.57;56.60;101201.63;5098463;27;98916;-70
2023/02/18 03:33:35;;;;;;;14.82;1.98;;;;;;;9.32;57.54;101202.25;5104849;27;97262;-70
2023/02/18 03:36:02;;;;;;;15.77;2.22;;;;;;;9.32;57.31;101194.34;5100744;27;97556;-70
2023/02/18 03:38:35;;;;;;;22.08;2.40;;;;;;;9.64;56.26;101199.72;5101982;27;101813;-70
2023/02/18 03:41:02;;;;;;;12.32;1.88;;;;;;;9.74;55.65;101179.22;5105328;27;101850;-70
2023/02/18 03:43:29;;;;;;;14.85;2.72;;;;;;;9.90;55.24;101188.50;5103190;27;96728;-71
2023/02/18 03:45:55;;;;;;;15.80;1.52;;;;;;;9.47;56.22;101188.66;5106491;27;97480;-71
2023/02/18 03:48:22;;;;;;;16.17;1.90;;;;;;;9.61;56.00;101186.56;5107502;27;98653;-70
2023/02/18 03:50:48;;;;;;;13.50;1.65;;;;;;;9.80;55.39;101184.34;5101621;27;98427;-71
2023/02/18 03:53:15;;;;;;;17.42;1.88;;;;;;;9.37;55.64;101190.69;5099944;27;97278;-69
2023/02/18 03:55:42;;;;;;;8.57;1.10;;;;;;;9.52;55.85;101181.50;5104628;27;96856;-71
2023/02/18 03:58:09;;;;;;;11.27;1.48;;;;;;;9.54;55.73;101174.44;5100377;27;98900;-71
2023/02/18 04:00:35;;;;;;;13.30;2.42;;;;;;;9.49;56.01;101189.50;5103414;27;99489;-70
2023/02/18 04:03:02;;;;;;;11.80;1.38;;;;;;;9.56;55.47;101189.34;5108321;27;97542;-69
2023/02/18 04:05:28;;;;;;;9.38;1.40;;;;;;;9.48;55.83;101186.00;5098276;27;96815;-70
2023/02/18 04:07:54;;;;;;;7.30;1.30;;;;;;;9.23;56.49;101189.25;5103377;27;99094;-69
2023/02/18 04:10:21;;;;;;;11.80;1.52;;;;;;;9.26;56.48;101190.03;5102798;27;101093;-70
2023/02/18 04:12:49;;;;;;;12.57;1.60;;;;;;;9.24;56.54;101201.53;5106551;27;97755;-70
2023/02/18 04:15:16;;;;;;;13.15;1.48;;;;;;;9.59;55.25;101188.38;5098842;27;96899;-73
2023/02/18 04:17:42;;;;;;;10.30;2.25;;;;;;;9.48;55.68;101196.56;5101387;27;99118;-69
2023/02/18 04:20:09;;;;;;;12.63;1.65;;;;;;;9.64;55.21;101194.44;5105971;27;99287;-70
2023/02/18 04:22:36;;;;;;;7.22;1.80;;;;;;;9.55;54.76;101197.28;5098710;27;98128;-70
2023/02/18 04:25:02;;;;;;;13.63;1.88;;;;;;;8.88;57.02;101196.16;5101753;27;97576;-70
2023/02/18 04:27:29;;;;;;;17.73;1.30;;;;;;;9.25;56.66;101201.50;5107109;27;99093;-70
2023/02/18 04:29:57;;;;;;;18.27;2.20;;;;;;;9.34;55.62;101197.78;5106562;27;101604;-71
2023/02/18 04:32:23;;;;;;;6.43;1.48;;;;;;;9.43;55.48;101203.72;5097664;27;96835;-70
2023/02/18 04:34:49;;;;;;;6.60;1.02;;;;;;;9.44;55.40;101205.47;5104839;27;96880;-70
2023/02/18 04:37:16;;;;;;;13.52;1.58;;;;;;;9.15;56.52;101211.38;5104827;27;99174;-70
2023/02/18 04:39:42;;;;;;;11.68;1.27;;;;;;;9.23;56.18;101215.63;5098557;27;99038;-70
2023/02/18 04:42:09;;;;;;;9.32;1.48;;;;;;;9.36;55.84;101207.41;5105589;27;97767;-71
2023/02/18 04:44:36;;;;;;;9.52;1.70;;;;;;;9.36;55.93;101214.44;5095833;27;98859;-71
2023/02/18 04:47:04;;;;;;;11.43;1.23;;;;;;;9.52;55.28;101215.81;5101787;27;102347;-71
2023/02/18 04:49:30;;;;;;;13.27;1.65;;;;;;;9.45;55.61;101219.53;5098753;27;98994;-70
2023/02/18 04:51:57;;;;;;;8.65;1.63;;;;;;;9.35;55.75;101217.97;5098891;27;97376;-70
2023/02/18 04:54:23;;;;;;;10.35;1.05;;;;;;;9.62;55.03;101219.97;5096546;27;96761;-71
2023/02/18 04:56:52;;;;;;;8.05;1.17;;;;;;;9.64;54.56;101212.91;5106543;27;98904;-71
2023/02/18 04:59:18;;;;;;;10.70;1.20;;;;;;;9.63;54.80;101219.06;5106613;27;101113;-70
2023/02/18 05:01:44;;;;;;;12.63;1.50;;;;;;;9.74;54.71;101219.66;5102400;27;97278;-69
2023/02/18 05:04:12;;;;;;;16.17;2.65;;;;;;;9.58;54.85;101218.31;5102524;27;97772;-69
2023/02/18 05:06:39;;;;;;;12.40;1.20;;;;;;;9.71;54.73;101225.03;5095427;27;98857;-70
2023/02/18 05:09:05;;;;;;;10.13;1.15;;;;;;;9.69;54.64;101216.28;5101766;27;98864;-70
2023/02/18 05:11:32;;;;;;;11.70;2.10;;;;;;;9.65;54.62;101225.16;5101260;27;97986;-70
2023/02/18 05:13:58;;;;;;;12.15;1.50;;;;;;;9.83;54.16;101216.81;5096028;27;97352;-71
2023/02/18 05:16:24;;;;;;;10.27;1.45;;;;;;;9.78;54.31;101209.94;5103757;27;99247;-72
2023/02/18 05:18:51;;;;;;;13.75;1.83;;;;;;;9.67;54.46;101214.56;5100378;27;99066;-70
2023/02/18 05:21:19;;;;;;;7.57;1.00;;;;;;;9.86;54.10;101219.38;5100964;27;97282;-71
2023/02/18 05:23:45;;;;;;;12.00;2.15;;;;;;;10.08;53.63;101208.25;5102485;27;99134;-70
2023/02/18 05:26:11;;;;;;;15.65;1.50;;;;;;;10.07;53.37;101204.75;5101751;27;101600;-70
2023/02/18 05:28:38;;;;;;;19.70;1.67;;;;;;;10.08;53.41;101202.97;5102367;27;98731;-69
2023/02/18 05:31:04;;;;;;;8.38;1.33;;;;;;;10.05;52.94;101203.03;5104484;27;97803;-70
2023/02/18 05:33:31;;;;;;;12.68;1.90;;;;;;;10.05;53.33;101200.41;5099117;27;97478;-70
2023/02/18 05:35:57;;;;;;;13.05;1.75;;;;;;;10.07;52.78;101201.25;5101790;27;97797;-70
2023/02/18 05:38:25;;;;;;;12.55;1.50;;;;;;;10.05;53.08;101190.72;5096478;27;99103;-70
2023/02/18 05:40:51;;;;;;;7.40;1.83;;;;;;;10.19;52.61;101200.94;5104250;27;96759;-70
2023/02/18 05:43:18;;;;;;;10.63;0.95;;;;;;;10.44;52.17;101201.16;5102048;27;96871;-71
2023/02/18 05:45:44;;;;;;;12.43;2.25;;;;;;;10.41;52.01;101195.97;5095715;27;99230;-70
2023/02/18 05:48:10;;;;;;;9.23;1.38;;;;;;;10.45;51.80;101190.53;5097702;27;98795;-71
2023/02/18 05:50:37;;;;;;;23.92;2.35;;;;;;;10.42;51.58;101185.34;5100196;27;97237;-70
2023/02/18 05:53:03;;;;;;;10.73;1.75;;;;;;;10.53;51.32;101196.47;5097541;27;97430;-70
2023/02/18 05:55:32;;;;;;;9.95;1.67;;;;;;;10.46;51.58;101191.41;5099695;27;98909;-70
2023/02/18 05:57:58;;;;;;;6.55;1.15;;;;;;;10.45;51.60;101193.19;5106320;27;98669;-71
2023/02/18 06:00:24;;;;;;;11.38;1.30;;;;;;;10.46;51.37;101199.34;5095887;27;99012;-72
2023/02/18 06:02:51;;;;;;;8.65;1.48;;;;;;;10.49;51.15;101194.84;5093315;27;98808;-71
2023/02/18 06:05:17;;;;;;;8.10;0.93;;;;;;;10.53;51.19;101199.13;5104715;27;100836;-71
2023/02/18 06:07:46;;;;;;;8.63;1.17;;;;;;;10.59;50.87;101196.31;5104587;27;98934;-71
2023/02/18 06:10:13;;;;;;;9.93;1.77;;;;;;;10.57;51.32;101207.81;5097560;27;97235;-73
2023/02/18 06:12:40;;;;;;;10.10;1.33;;;;;;;10.43;51.29;101200.31;5097304;27;97264;-71
2023/02/18 06:15:08;;;;;;;6.72;0.80;;;;;;;10.47;51.37;101207.22;5099094;27;98934;-71
2023/02/18 06:17:34;;;;;;;9.18;1.30;;;;;;;10.71;50.66;101195.94;5101927;27;98007;-72
2023/02/18 06:20:01;;;;;;;7.07;1.08;;;;;;;10.50;50.80;101196.56;5103184;27;97179;-71
2023/02/18 06:22:27;;;;;;;9.35;1.10;;;;;;;10.61;50.63;101191.00;5105046;27;97371;-70
2023/02/18 06:24:53;;;;;;;5.82;1.33;;;;;;;10.54;50.75;101200.88;5097083;27;98857;-72
2023/02/18 06:27:20;;;;;;;6.75;1.00;;;;;;;10.55;50.76;101193.81;5093287;27;99303;-71
2023/02/18 06:29:48;;;;;;;12.35;1.65;;;;;;;10.62;50.84;101198.88;5102535;27;96784;-71
2023/02/18 06:32:14;;;;;;;8.07;1.13;;;;;;;10.73;50.49;101207.34;5098834;27;97186;-70
2023/02/18 06:34:41;;;;;;;8.20;0.90;;;;;;;10.93;50.36;101197.97;5096691;27;98657;-69
2023/02/18 06:37:07;;;;;;;9.48;1.08;;;;;;;10.89;50.07;101204.28;5106837;27;97793;-70
2023/02/18 06:39:33;;;;;;;12.50;1.48;;;;;;;10.87;50.64;101198.16;5092623;27;97427;-71
2023/02/18 06:42:00;;;;;;;5.93;1.17;;;;;;;11.07;49.74;101198.44;5100762;27;98693;-69
2023/02/18 06:44:26;;;;;;;7.10;1.25;;;;;;;10.90;50.13;101205.97;5101120;27;99073;-71
2023/02/18 06:46:54;;;;;;;8.75;1.08;;;;;;;10.85;50.59;101192.91;5104921;27;98939;-70
2023/02/18 06:49:20;;;;;;;12.68;1.30;;;;;;;10.68;50.79;101184.63;5100632;27;98811;-70
2023/02/18 06:51:47;;;;;;;6.80;1.17;;;;;;;10.88;50.75;101190.19;5104592;27;97077;-73
2023/02/18 06:54:13;;;;;;;5.80;0.85;;;;;;;10.94;50.55;101186.50;5103702;27;99204;-74
2023/02/18 06:56:39;;;;;;;8.60;1.15;;;;;;;10.86;50.92;101183.19;5101694;27;99302;-74
2023/02/18 06:59:07;;;;;;;4.57;1.10;;;;;;;11.08;50.29;101201.03;5100427;27;96850;-73
2023/02/18 07:01:33;;;;;;;7.85;1.05;;;;;;;11.09;50.27;101196.63;5101734;27;97143;-73
2023/02/18 07:04:01;;;;;;;5.18;0.85;;;;;;;11.19;50.03;101195.41;5102251;27;98835;-73
2023/02/18 07:06:28;;;;;;;7.15;1.25;;;;;;;10.78;50.84;101180.78;5095548;27;100281;-73
2023/02/18 07:08:54;;;;;;;7.22;1.17;;;;;;;10.92;50.64;101183.88;5100660;27;96988;-73
2023/02/18 07:11:21;;;;;;;7.35;1.00;;;;;;;11.00;50.86;101187.16;5098712;27;97662;-73
2023/02/18 07:13:47;;;;;;;6.03;1.00;;;;;;;10.90;50.76;101180.41;5104825;27;99654;-73
2023/02/18 07:16:14;;;;;;;6.55;0.80;;;;;;;10.83;50.69;101184.16;5109008;27;99794;-73
2023/02/18 07:18:40;;;;;;;6.47;0.80;;;;;;;11.01;50.62;101180.97;5103618;27;97597;-72
2023/02/18 07:21:08;;;;;;;8.25;1.17;;;;;;;11.05;50.46;101181.72;5100211;27;97434;-72
2023/02/18 07:23:34;;;;;;;7.78;0.93;;;;;;;11.29;49.74;101178.31;5103945;27;98876;-73
2023/02/18 07:26:06;;;;;;;3.60;0.82;;;;;;;10.97;50.65;101166.09;5099590;27;100744;-73
2023/02/18 07:28:32;;;;;;;9.45;0.88;;;;;;;11.05;50.57;101165.88;5103395;27;97089;-72
2023/02/18 07:30:58;;;;;;;10.43;1.30;;;;;;;11.20;50.68;101173.34;5105160;27;96874;-73
2023/02/18 07:33:25;;;;;;;3.67;0.73;;;;;;;11.11;50.90;101165.69;5099693;27;99266;-72
2023/02/18 07:35:57;;;;;;;6.35;0.95;;;;;;;11.18;50.40;101169.88;5103162;27;98924;-72
2023/02/18 07:38:26;;;;;;;5.93;0.98;;;;;;;11.34;50.49;101159.69;5105585;27;96846;-73
2023/02/18 07:40:52;;;;;;;7.43;0.88;;;;;;;11.28;50.59;101155.44;5101240;27;97177;-73
2023/02/18 07:43:19;;;;;;;6.38;0.90;;;;;;;11.10;51.38;101156.88;5097220;27;99276;-72
2023/02/18 07:45:46;;;;;;;7.80;1.33;;;;;;;11.09;51.53;101149.84;5106320;27;97809;-72
2023/02/18 07:48:13;;;;;;;10.90;1.15;;;;;;;11.29;51.43;101146.56;5109421;27;97459;-73
2023/02/18 07:50:41;;;;;;;5.97;1.00;;;;;;;11.47;51.12;101132.78;5100484;27;96978;-73
2023/02/18 07:53:08;;;;;;;9.98;0.90;;;;;;;10.73;53.17;101148.34;5107098;27;98198;-73
2023/02/18 07:55:51;;;;;;;9.95;1.42;;;;;;;11.24;52.36;101148.50;5098600;27;98845;-74
2023/02/18 07:58:19;;;;;;;6.75;0.77;;;;;;;11.38;52.78;101140.13;5092304;27;97235;-72
2023/02/18 08:00:46;;;;;;;8.40;1.05;;;;;;;11.60;52.73;101149.09;5091497;27;98672;-73
2023/02/18 08:03:13;;;;;;;7.30;1.65;;;;;;;11.24;53.32;101131.78;5099077;27;99444;-72
2023/02/18 08:05:39;;;;;;;7.97;2.22;;;;;;;11.21;53.88;101143.34;5101071;27;99461;-72
2023/02/18 08:08:06;;;;;;;8.07;1.17;;;;;;;11.20;54.22;101136.31;5102446;27;99158;-73
2023/02/18 08:10:32;;;;;;;3.67;0.55;;;;;;;11.37;53.80;101122.53;5094057;27;98207;-72
2023/02/18 08:13:00;;;;;;;10.85;2.15;;;;;;;11.20;54.37;101120.44;5095955;27;99523;-73
2023/02/18 08:15:26;;;;;;;7.00;1.25;;;;;;;11.24;54.63;101114.13;5090541;27;99127;-73
2023/02/18 08:17:53;;;;;;;9.15;0.88;;;;;;;11.02;55.42;101121.03;5092822;27;97167;-72
2023/02/18 08:20:20;;;;;;;6.68;1.13;;;;;;;11.11;55.15;101111.00;5094000;27;97830;-72
2023/02/18 08:22:46;;;;;;;7.35;0.80;;;;;;;11.29;54.96;101101.59;5100537;27;100380;-73
2023/02/18 08:25:13;;;;;;;7.40;1.02;;;;;;;11.40;54.50;101099.50;5100095;27;98910;-73
2023/02/18 08:27:39;;;;;;;5.95;0.80;;;;;;;11.64;54.41;101107.50;5092704;27;98430;-73
2023/02/18 08:30:08;;;;;;;7.57;1.30;;;;;;;11.61;54.96;101094.38;5100447;27;99246;-75
2023/02/18 08:32:35;;;;;;;6.70;1.10;;;;;;;11.73;55.25;101093.97;5098001;27;102545;-73
2023/02/18 08:35:02;;;;;;;8.25;0.90;;;;;;;11.77;54.92;101095.59;5099748;27;99010;-73
2023/02/18 08:37:29;;;;;;;7.47;0.90;;;;;;;11.70;55.28;101084.34;5103159;27;96987;-73
2023/02/18 08:39:55;;;;;;;7.15;0.77;;;;;;;11.72;55.72;101086.94;5094016;27;97526;-75
2023/02/18 08:42:22;;;;;;;6.38;1.15;;;;;;;11.76;55.83;101078.84;5092628;27;98342;-72
2023/02/18 08:44:48;;;;;;;6.50;1.00;;;;;;;11.37;56.85;101073.13;5093867;27;102341;-74
2023/02/18 08:47:16;;;;;;;5.28;0.70;;;;;;;11.60;56.46;101082.94;5097212;27;97203;-72
2023/02/18 08:49:42;;;;;;;5.63;0.90;;;;;;;11.52;57.30;101075.25;5093780;27;96879;-73
2023/02/18 08:52:09;;;;;;;6.28;0.68;;;;;;;11.50;57.63;101081.50;5092728;27;98969;-73
2023/02/18 08:54:35;;;;;;;5.22;0.93;;;;;;;11.50;57.57;101077.06;5091370;27;100846;-74
2023/02/18 08:57:02;;;;;;;6.55;1.10;;;;;;;11.65;57.17;101081.00;5095532;27;98559;-73
2023/02/18 08:59:28;;;;;;;9.05;1.02;;;;;;;11.48;57.77;101076.28;5101862;27;96952;-74
2023/02/18 09:01:55;;;;;;;7.10;1.10;;;;;;;11.66;58.23;101077.44;5097703;27;97343;-74
2023/02/18 09:04:23;;;;;;;9.02;1.00;;;;;;;11.85;58.05;101070.59;5092691;27;98904;-74
2023/02/18 09:06:50;;;;;;;8.05;1.23;;;;;;;11.45;59.19;101063.16;5101307;27;97040;-74
2023/02/18 09:09:16;;;;;;;4.97;0.73;;;;;;;11.46;59.29;101054.28;5098431;27;99268;-74
2023/02/18 09:11:43;;;;;;;6.70;1.25;;;;;;;11.69;59.17;101049.97;5104170;27;98977;-74
2023/02/18 09:14:10;;;;;;;6.50;1.23;;;;;;;11.86;59.33;101047.63;5089167;27;100848;-74
2023/02/18 09:16:37;;;;;;;12.65;1.48;;;;;;;11.93;58.87;101043.84;5105098;27;97250;-74
2023/02/18 09:19:04;;;;;;;11.93;1.38;;;;;;;12.17;58.58;101039.41;5104953;27;97012;-73
2023/02/18 09:21:32;;;;;;;8.40;1.10;;;;;;;12.23;57.90;101034.75;5104360;27;98885;-73
2023/02/18 09:23:58;;;;;;;11.70;1.63;;;;;;;12.04;58.65;101031.06;5090922;27;98943;-74
2023/02/18 09:26:26;;;;;;;8.77;1.08;;;;;;;12.31;58.22;101026.53;5104143;27;96893;-73
2023/02/18 09:28:54;;;;;;;6.20;1.33;;;;;;;12.23;58.55;101029.47;5101930;27;97021;-74
2023/02/18 09:31:23;;;;;;;8.88;1.23;;;;;;;12.58;57.66;101025.47;5101305;27;100172;-74
2023/02/18 09:33:53;;;;;;;9.77;1.30;;;;;;;12.52;57.26;101019.53;5091994;27;99338;-74
2023/02/18 09:36:20;;;;;;;10.00;1.33;;;;;;;12.54;58.01;101013.22;5097305;27;98710;-75
2023/02/18 09:38:49;;;;;;;9.00;1.20;;;;;;;12.38;58.37;101015.63;5094103;27;98754;-74
2023/02/18 09:41:23;;;;;;;11.45;2.35;;;;;;;12.60;57.77;100997.09;5093694;27;99331;-73
2023/02/18 09:43:53;;;;;;;10.20;1.55;;;;;;;12.36;58.27;100984.81;5097673;27;99052;-73
2023/02/18 09:46:28;;;;;;;12.77;1.83;;;;;;;12.38;58.67;100980.31;5099033;27;97767;-73
2023/02/18 09:48:55;;;;;;;6.43;1.20;;;;;;;12.38;58.88;100975.88;5103259;27;98818;-73
2023/02/18 09:51:22;;;;;;;6.35;1.50;;;;;;;12.54;58.26;100962.00;5111881;27;102159;-74
2023/02/18 09:53:50;;;;;;;13.15;1.52;;;;;;;12.41;58.61;100950.16;5093140;27;98705;-74
2023/02/18 09:56:23;;;;;;;11.50;1.50;;;;;;;12.27;59.46;100946.28;5095300;27;97705;-76
2023/02/18 09:58:57;;;;;;;9.88;1.63;;;;;;;12.14;59.97;100950.31;5102383;27;99186;-76
2023/02/18 10:01:30;;;;;;;16.73;2.40;;;;;;;12.22;59.78;100950.91;5099314;27;100664;-71
2023/02/18 10:04:22;;;;;;;12.30;1.88;;;;;;;12.17;60.07;100936.97;5101342;27;101472;-73
2023/02/18 10:06:51;;;;;;;14.55;2.88;;;;;;;12.01;60.90;100929.69;5105368;27;97779;-71
2023/02/18 10:09:25;;;;;;;11.15;2.33;;;;;;;12.00;61.83;100933.25;5098320;27;97074;-71
2023/02/18 10:11:56;;;;;;;13.38;1.50;;;;;;;12.15;60.93;100935.28;5101191;27;98871;-70
2023/02/18 10:14:41;;;;;;;14.57;1.80;;;;;;;12.01;62.06;100930.56;5097094;27;99228;-72
2023/02/18 10:17:24;;;;;;;12.50;1.98;;;;;;;12.21;61.34;100933.28;5096412;27;97808;-72
2023/02/18 10:19:52;;;;;;;10.63;1.80;;;;;;;12.04;62.11;100918.97;5103439;27;96843;-71
2023/02/18 10:22:20;;;;;;;8.73;1.70;;;;;;;11.98;62.49;100914.78;5103761;27;99016;-72
2023/02/18 10:24:51;;;;;;;9.45;1.77;;;;;;;11.82;63.48;100910.97;5102912;27;98141;-72
2023/02/18 10:27:23;;;;;;;9.70;1.83;;;;;;;11.97;62.88;100891.84;5098775;27;97287;-70
2023/02/18 10:29:49;;;;;;;10.40;1.92;;;;;;;11.91;63.29;100882.38;5097142;27;96760;-71
2023/02/18 10:32:22;;;;;;;13.32;1.52;;;;;;;11.84;63.75;100866.78;5104026;27;99023;-71
2023/02/18 10:34:53;;;;;;;8.52;1.65;;;;;;;12.14;63.42;100857.59;5102720;27;97732;-72
2023/02/18 10:37:45;;;;;;;8.20;1.70;;;;;;;12.08;63.45;100857.03;5102497;27;98307;-70
2023/02/18 10:40:23;;;;;;;14.13;1.77;;;;;;;12.07;63.63;100837.63;5105883;27;97019;-71
2023/02/18 10:43:01;;;;;;;12.63;1.85;;;;;;;12.17;63.18;100825.72;5095620;27;101401;-71
2023/02/18 10:45:36;;;;;;;9.77;1.85;;;;;;;12.21;63.56;100816.69;5104402;27;98816;-71
2023/02/18 10:48:17;;;;;;;8.13;2.05;;;;;;;12.26;63.22;100812.09;5097415;27;96724;-71
2023/02/18 10:50:45;;;;;;;10.60;2.72;;;;;;;12.37;62.84;100801.03;5106763;27;97259;-71
2023/02/18 10:53:16;;;;;;;6.68;1.55;;;;;;;12.13;64.05;100791.47;5099382;27;98501;-72
2023/02/18 10:55:47;;;;;;;7.65;1.45;;;;;;;12.22;63.82;100791.94;5104946;27;100054;-71
2023/02/18 10:58:34;;;;;;;6.50;1.60;;;;;;;12.11;64.05;100788.00;5114983;27;96798;-71
2023/02/18 11:01:07;;;;;;;9.57;1.60;;;;;;;11.99;64.79;100778.78;5106356;27;96779;-71
2023/02/18 11:03:42;;;;;;;4.93;1.50;;;;;;;12.33;63.82;100760.59;5104851;27;99610;-70
2023/02/18 11:06:19;;;;;;;7.32;1.77;;;;;;;12.32;63.23;100758.84;5109220;27;99539;-72
2023/02/18 11:08:46;;;;;;;6.35;1.48;;;;;;;12.14;64.94;100745.53;5101958;27;96927;-71
2023/02/18 11:11:17;;;;;;;5.95;1.52;;;;;;;12.28;64.48;100727.22;5104867;27;97307;-71
2023/02/18 11:13:44;;;;;;;7.20;1.40;;;;;;;12.20;64.46;100727.59;5099761;27;98856;-72
2023/02/18 11:16:12;;;;;;;7.75;1.40;;;;;;;12.30;64.85;100713.00;5104089;27;98833;-70
2023/02/18 11:18:40;;;;;;;7.18;1.50;;;;;;;12.26;64.61;100711.44;5100190;27;97806;-72
2023/02/18 11:21:21;;;;;;;6.90;1.23;;;;;;;12.32;64.38;100707.66;5100817;27;97587;-72
2023/02/18 11:23:49;;;;;;;5.72;1.20;;;;;;;12.35;64.25;100692.47;5098080;27;99924;-72
2023/02/18 11:26:24;;;;;;;5.13;1.00;;;;;;;12.42;64.31;100692.19;5102215;27;97678;-71
2023/02/18 11:28:57;;;;;;;7.40;1.27;;;;;;;12.07;65.05;100684.00;5102812;27;97939;-71
2023/02/18 11:31:26;;;;;;;6.13;1.55;;;;;;;12.26;65.52;100695.53;5105413;27;96915;-72
2023/02/18 11:33:56;;;;;;;6.03;1.60;;;;;;;12.49;64.70;100669.78;5098811;27;98323;-73